• Join FlightAware (Why Join?)
  • Login
  • US Flag 
06:11PM EST


 

Airport Tracker/Info


-or-


 

Live Flight TrackerFlight Track Log ✈ N743AE ✈ 19-Apr-2013 ✈ KSGT - KTVI

Flight Track Log - Related Links

Times and Time Zones

All times are in EDT time to prevent confusion due to time zone crossing. See the N743AE flight status page for this flight to view local times or setup timezone preferences in your user account.

Time Position Orientation Groundspeed Altitude Reporting Facility
EDT Latitude Longitude Course Direction KTS MPH feet Rate Location/Type
07:46PM 34.5064 -91.4106 114° Southeast 186 214 5,400  Level Memphis Center
07:47PM 34.4797 -91.3550 120° Southeast 198 228 6,500 1,200 Climbing Memphis Center
07:48PM 34.4531 -91.2892 116° Southeast 198 228 7,800 1,260 Climbing Memphis Center
07:49PM 34.4264 -91.2233 116° Southeast 203 234 9,100 1,200 Climbing Memphis Center
07:50PM 34.3978 -91.1575 118° Southeast 213 245 10,300 1,080 Climbing Memphis Center
07:51PM 34.4342 -91.1934 116° Southeast  Level Estimated
07:51PM 34.3667 -91.0919 120° Southeast 218 251 11,300  Level Memphis Center
07:52PM 34.3381 -91.0211 116° Southeast 224 258 12,500 1,080 Climbing Memphis Center
07:53PM 34.3050 -90.9481 119° Southeast 229 264 13,500 960 Climbing Memphis Center
07:54PM 34.2739 -90.8775 118° Southeast 236 272 14,500 960 Climbing Memphis Center
07:55PM 34.2408 -90.8044 119° Southeast 236 272 15,500 780 Climbing Memphis Center
07:56PM 34.2139 -90.7414 117° Southeast 246 283 16,100 720 Climbing Memphis Center
07:57PM 34.1808 -90.6661 118° Southeast 246 283 17,000 900 Climbing Memphis Center
07:58PM 34.1475 -90.5956 120° Southeast 246 283 17,900 840 Climbing Memphis Center
07:59PM 34.1183 -90.5253 117° Southeast 246 283 18,700 840 Climbing Memphis Center
08:00PM 34.0872 -90.4550 118° Southeast 246 283 19,600 840 Climbing Memphis Center
08:01PM 34.0581 -90.3822 116° Southeast 246 283 20,400 780 Climbing Memphis Center
08:02PM 34.0267 -90.3119 118° Southeast 240 276 21,200 660 Climbing Memphis Center
08:03PM 33.9931 -90.2394 119° Southeast 246 283 21,800 600 Climbing Memphis Center
08:04PM 33.9556 -90.1619 120° Southeast 246 283 22,500 600 Climbing Memphis Center
08:05PM 33.9242 -90.0894 118° Southeast 246 283 23,100 600 Climbing Memphis Center
08:06PM 33.8925 -90.0169 118° Southeast 246 283 23,800 540 Climbing Memphis Center
08:07PM 33.8589 -89.9419 118° Southeast 246 283 24,200 420 Climbing Memphis Center
08:08PM 33.8253 -89.8672 118° Southeast 251 289 24,700 360 Climbing Memphis Center
08:09PM 33.7936 -89.7947 118° Southeast 246 283 25,000 120 Climbing Memphis Center
08:10PM 33.7578 -89.7150 118° Southeast 252 290 25,000  Level Memphis Center
08:11PM 33.7197 -89.6331 119° Southeast 263 303 25,000  Level Memphis Center
08:12PM 33.6817 -89.5458 118° Southeast 274 315 25,000  Level Memphis Center
08:13PM 33.6436 -89.4614 118° Southeast 281 323 25,000  Level Memphis Center
08:14PM 33.6053 -89.3744 118° Southeast 287 330 25,000  Level Memphis Center
08:15PM 33.5650 -89.2903 120° Southeast 287 330 25,000  Level Memphis Center
08:16PM 33.5267 -89.2058 119° Southeast 287 330 25,000  Level Memphis Center
08:17PM 33.4881 -89.1217 119° Southeast 287 330 25,000  Level Memphis Center
08:18PM 33.4497 -89.0375 119° Southeast 287 330 25,000  Level Memphis Center
08:19PM 33.4114 -88.9536 119° Southeast 287 330 25,000  Level Memphis Center
08:20PM 33.3728 -88.8697 119° Southeast 287 330 25,000  Level Memphis Center
08:21PM 33.3342 -88.7883 120° Southeast 287 330 25,000  Level Memphis Center
08:22PM 33.2956 -88.7069 120° Southeast 287 330 25,000  Level Memphis Center
08:23PM 33.2589 -88.6281 119° Southeast 287 330 25,000  Level Memphis Center
08:24PM 33.2222 -88.5419 117° Southeast 287 330 25,000  Level Memphis Center
08:25PM 33.1833 -88.4608 120° Southeast 287 330 25,000  Level Memphis Center
08:26PM 33.1447 -88.3797 120° Southeast 287 330 25,000  Level Memphis Center
08:29PM 33.0483 -88.1797 120° Southeast 292 336 25,000  Level Atlanta Center
08:30PM 33.0114 -88.0989 119° Southeast 292 336 25,000  Level Atlanta Center
08:31PM 32.9722 -88.0178 120° Southeast 292 336 25,000  Level Atlanta Center
08:32PM 32.9356 -87.9319 117° Southeast 287 330 25,000  Level Atlanta Center
08:33PM 32.9006 -87.8486 117° Southeast 287 330 25,000  Level Atlanta Center
08:34PM 32.8569 -87.7678 123° Southeast 287 330 25,000  Level Atlanta Center
08:35PM 32.8175 -87.6894 121° Southeast 287 330 25,000  Level Atlanta Center
08:36PM 32.7781 -87.6111 121° Southeast 287 330 25,000  Level Atlanta Center
08:37PM 32.7408 -87.5283 118° Southeast 287 330 25,000  Level Atlanta Center
08:38PM 32.7036 -87.4478 119° Southeast 282 325 25,000  Level Atlanta Center
08:39PM 32.6661 -87.3672 119° Southeast 282 325 25,000  Level Atlanta Center
08:40PM 32.6222 -87.2869 123° Southeast 282 325 25,000  Level Atlanta Center
08:41PM 32.5867 -87.2067 118° Southeast 282 325 25,000  Level Atlanta Center
08:42PM 32.5469 -87.1264 120° Southeast 282 325 25,000  Level Atlanta Center
08:43PM 32.5094 -87.0461 119° Southeast 282 325 25,000  Level Atlanta Center
08:44PM 32.4694 -86.9661 121° Southeast 282 325 25,000  Level Atlanta Center
08:45PM 32.4275 -86.8858 122° Southeast 282 325 25,000  Level Atlanta Center
08:46PM 32.3897 -86.8086 120° Southeast 282 325 25,000  Level Atlanta Center
08:47PM 32.3497 -86.7261 120° Southeast 282 325 25,000  Level Atlanta Center
08:48PM 32.3200 -86.6614 119° Southeast 277 319 25,000  Level Atlanta Center
08:49PM 32.2778 -86.5792 121° Southeast 277 319 25,000  Level Atlanta Center
08:50PM 32.2419 -86.4969 117° Southeast 282 325 25,000 -180 Level Atlanta Center
08:51PM 32.2017 -86.4197 122° Southeast 282 325 24,700 -420 Descending Atlanta Center
08:52PM 32.1492 -86.3203 122° Southeast 294 338 24,200 -360 Descending Atlanta Center
08:53PM 32.1028 -86.2333 122° Southeast 306 352 24,000 -420 Descending Atlanta Center
08:55PM 32.0222 -86.0681 120° Southeast 305 351 23,100 -360 Descending Jacksonville Center
08:56PM 31.9825 -85.9858 120° Southeast 299 344 23,000 -60 Descending Jacksonville Center
08:57PM 31.9428 -85.9064 120° Southeast 294 338 23,000  Level Jacksonville Center
08:58PM 31.9050 -85.8317 121° Southeast 283 326 23,000  Level Jacksonville Center
08:59PM 31.8650 -85.7522 121° Southeast 283 326 23,000  Level Jacksonville Center
09:00PM 31.8269 -85.6775 121° Southeast 278 320 23,000  Level Jacksonville Center
09:01PM 31.7889 -85.6031 121° Southeast 278 320 23,000  Level Jacksonville Center
09:02PM 31.7356 -85.5600 146° Southeast 252 290 23,000  Level Jacksonville Center
09:03PM 31.6822 -85.5169 146° Southeast 232 267 23,000  Level Jacksonville Center
09:04PM 31.6289 -85.4717 144° Southeast 237 273 23,000  Level Jacksonville Center
09:05PM 31.5753 -85.4336 149° Southeast 237 273 23,000  Level Jacksonville Center
09:06PM 31.5261 -85.3811 138° Southeast 232 267 23,000  Level Jacksonville Center
09:07PM 31.4728 -85.3406 147° Southeast 238 274 23,000  Level Jacksonville Center
09:08PM 31.4169 -85.3100 155° Southeast 227 261 23,000  Level Jacksonville Center
09:09PM 31.3656 -85.2600 140° Southeast 222 255 23,000  Level Jacksonville Center
09:10PM 31.3231 -85.2006 130° Southeast 235 270 23,000  Level Jacksonville Center
09:11PM 31.2931 -85.1194 113° Southeast 248 285 23,000 -60 Level Jacksonville Center
09:12PM 31.2842 -85.0342 97° East 248 285 22,900 -600 Descending Jacksonville Center
09:13PM 31.2792 -84.9467 94° East 258 297 21,900 -1,200 Descending Jacksonville Center
09:14PM 31.2553 -84.8781 112° Southeast 247 284 20,500 -1,440 Descending Jacksonville Center
09:15PM 31.2439 -84.8000 100° East 241 277 19,100 -1,380 Descending Jacksonville Center
09:16PM 31.2619 -84.7203 75° East 236 272 17,800 -1,200 Descending Jacksonville Center
09:17PM 31.2461 -84.6469 104° East 236 272 16,700 -1,260 Descending Jacksonville Center
09:18PM 31.2158 -84.5858 120° Southeast 221 254 15,400 -1,380 Descending Jacksonville Center
09:19PM 31.1894 -84.5269 118° Southeast 214 246 14,000 -1,500 Descending Jacksonville Center
09:19PM 31.1811 -84.5097 119° Southeast 208 239 13,500 -1,260 Descending Jacksonville Center
09:20PM 31.1631 -84.4683 117° Southeast 209 241 12,800 -1,020 Descending Jacksonville Center
09:20PM 31.1569 -84.4536 116° Southeast 203 234 12,500 -1,020 Descending Jacksonville Center
09:21PM 31.1406 -84.4119 115° Southeast 203 234 11,800 -1,200 Descending Jacksonville Center
09:21PM 31.1303 -84.3950 125° Southeast 194 223 11,300 -1,680 Descending Jacksonville Center
09:22PM 31.1100 -84.3631 127° Southeast 198 228 10,200 -1,680 Descending Jacksonville Center
09:22PM 31.1017 -84.3531 134° Southeast 179 206 9,600 -1,620 Descending Jacksonville Center
09:23PM 31.0769 -84.3261 137° Southeast 178 205 8,600 -1,500 Descending Jacksonville Center
09:23PM 31.0644 -84.3139 140° Southeast 175 201 8,100 -1,380 Descending Jacksonville Center
09:24PM 31.0439 -84.2869 132° Southeast 172 198 7,200 -1,200 Descending Jacksonville Center
09:24PM 31.0317 -84.2744 139° Southeast 174 200 6,900 -900 Descending Jacksonville Center
09:25PM 31.0111 -84.2378 123° Southeast 172 198 6,300 -840 Descending Jacksonville Center
09:25PM 31.0050 -84.2208 113° Southeast 185 213 6,100 -600 Descending Jacksonville Center
09:26PM 30.9950 -84.1844 108° East 177 204 5,700 -900 Descending Jacksonville Center
09:26PM 30.9889 -84.1672 112° Southeast 187 215 5,200 -1,500 Descending Jacksonville Center
09:27PM 30.9767 -84.1236 108° East 184 212 4,200 -1,620 Descending Jacksonville Center
09:27PM 30.9686 -84.1039 115° Southeast 205 236 3,600 -600 Descending Jacksonville Center
09:28PM 30.9564 -84.0747 116° Southeast 191 220 3,600 240 Level Jacksonville Center
09:29PM 30.9358 -84.0189 113° Southeast 191 220 4,000 360 Climbing Jacksonville Center
09:31PM 30.9018 -83.8811 103° East  Level Estimated